Covington, Kentucky
Current Conditions -  °F | °C
As of 8:53 AM on Friday 28 Nov 2014 (Local Time) from KLUK Reporting Station
Overcast Overcast  
Wind Chill: -5°   Ceiling: 9000
Heat Index: -2°   Visibility: 9mi
Dew Point: -6°   Wind: 6mph
Humidity: 72%   Direction: 230°SW
Pressure: 30.41"   Gusts: NA
Location:  39.08°N, 84.51°W
Report Text: KLUK 281353Z 23005KT 9SM FEW020 SCT030 OVC090 M02/M06 A3041 RMK AO2 SLP304 T10171061
Loading
Personal Weather Stations






























Interactive Weather Map New forecast layout! Learn more

10-Day Weather Forecast

Advertisements
Track Severe Weather on mobile